Time;durP1;ratioP1;P1;durP2;ratioP2;P2;SDS_P1;SDS_P2;PMS_P1;PMS_P2;Temp;Humidity;BMP_temperature;BMP_pressure;BME280_temperature;BME280_humidity;BME280_pressure;Samples;Min_cycle;Max_cycle;Signal;HPM_P1;HPM_P2
2021/08/28 00:00:52;;;;;;;7.53;3.70;;;;;;;;;;10254593;29;20051;-87
2021/08/28 00:05:52;;;;;;;6.82;3.08;;;;;;;;;;10242943;29;20528;-87
2021/08/28 00:10:53;;;;;;;4.85;2.83;;;;;;;;;;10229257;29;20363;-83
2021/08/28 00:15:53;;;;;;;5.53;2.63;;;;;;;;;;10229107;29;20470;-83
2021/08/28 00:20:53;;;;;;;7.47;2.40;;;;;;;;;;10230215;29;20039;-82
2021/08/28 00:25:54;;;;;;;7.50;2.60;;;;;;;;;;10229798;29;20044;-90
2021/08/28 00:30:56;;;;;;;6.60;3.33;;;;;;;;;;10229858;29;20044;-83
2021/08/28 00:35:57;;;;;;;4.13;2.20;;;;;;;;;;10229511;29;20039;-82
2021/08/28 00:40:58;;;;;;;4.57;2.58;;;;;;;;;;10228327;29;20111;-84
2021/08/28 00:45:58;;;;;;;4.60;2.73;;;;;;;;;;10229204;29;20463;-81
2021/08/28 00:50:59;;;;;;;8.52;2.40;;;;;;;;;;10199341;29;20470;-83
2021/08/28 00:55:59;;;;;;;2.70;1.92;;;;;;;;;;10212069;29;20489;-82
2021/08/28 01:01:03;;;;;;;5.50;2.33;;;;;;;;;;10230121;29;20051;-82
2021/08/28 01:06:12;;;;;;;4.80;2.30;;;;;;;;;;10229031;29;20035;-85
2021/08/28 01:11:19;;;;;;;2.80;2.25;;;;;;;;;;10226875;29;20099;-85
2021/08/28 01:16:21;;;;;;;4.78;2.00;;;;;;;;;;10227999;29;20043;-86
2021/08/28 01:21:35;;;;;;;7.38;2.00;;;;;;;;;;10227256;29;20486;-86
2021/08/28 01:26:58;;;;;;;3.72;2.20;;;;;;;;;;10226524;29;20039;-84
2021/08/28 01:31:59;;;;;;;1.95;1.75;;;;;;;;;;10208409;29;20096;-85
2021/08/28 01:37:01;;;;;;;3.70;1.80;;;;;;;;;;10227742;29;20534;-83
2021/08/28 01:42:03;;;;;;;3.90;2.00;;;;;;;;;;10228294;29;20465;-83
2021/08/28 01:47:07;;;;;;;3.53;1.83;;;;;;;;;;10254781;29;20039;-84
2021/08/28 01:52:08;;;;;;;2.97;1.90;;;;;;;;;;10255251;29;20106;-84
2021/08/28 01:57:09;;;;;;;1.90;1.65;;;;;;;;;;10256234;29;20039;-85
2021/08/28 02:02:10;;;;;;;3.75;1.70;;;;;;;;;;10253183;29;20038;-87
2021/08/28 02:07:40;;;;;;;3.38;2.00;;;;;;;;;;10252401;29;20041;-90
2021/08/28 02:12:43;;;;;;;2.42;1.75;;;;;;;;;;10252235;29;20046;-86
2021/08/28 02:17:51;;;;;;;2.15;1.60;;;;;;;;;;10241513;29;20075;-86
2021/08/28 02:22:56;;;;;;;;;;;;;;;;;;10246762;29;20058;-83
2021/08/28 02:28:00;;;;;;;1.63;1.52;;;;;;;;;;10264914;29;19965;-87
2021/08/28 02:33:04;;;;;;;1.83;1.70;;;;;;;;;;10234427;29;20043;-85
2021/08/28 02:38:05;;;;;;;2.90;1.67;;;;;;;;;;10247643;29;20046;-86
2021/08/28 02:43:06;;;;;;;5.60;1.50;;;;;;;;;;10247850;29;20039;-86
2021/08/28 02:48:06;;;;;;;3.92;1.75;;;;;;;;;;10231300;29;20534;-92
2021/08/28 02:53:08;;;;;;;7.72;1.58;;;;;;;;;;10228242;29;20031;-90
2021/08/28 02:58:08;;;;;;;10.48;1.70;;;;;;;;;;10233160;29;20063;-91
2021/08/28 03:03:11;;;;;;;2.13;1.23;;;;;;;;;;10251298;29;20041;-89
2021/08/28 03:08:16;;;;;;;1.60;1.20;;;;;;;;;;10232019;29;20092;-90
2021/08/28 03:13:17;;;;;;;1.30;1.20;;;;;;;;;;10237911;29;20091;-86
2021/08/28 03:18:20;;;;;;;2.78;1.45;;;;;;;;;;10223434;29;20113;-88
2021/08/28 03:23:27;;;;;;;1.15;1.00;;;;;;;;;;10247612;29;20053;-91
2021/08/28 03:28:28;;;;;;;1.50;1.08;;;;;;;;;;10240752;29;20114;-87
2021/08/28 03:33:29;;;;;;;1.00;0.98;;;;;;;;;;10227808;29;20035;-84
2021/08/28 03:38:30;;;;;;;1.35;1.10;;;;;;;;;;10227775;29;20433;-87
2021/08/28 03:43:32;;;;;;;1.95;1.25;;;;;;;;;;10212358;29;20060;-87
2021/08/28 03:48:33;;;;;;;1.58;1.05;;;;;;;;;;10229128;29;20071;-85
2021/08/28 03:53:33;;;;;;;1.05;0.93;;;;;;;;;;10243953;29;20043;-83
2021/08/28 03:58:34;;;;;;;0.90;0.90;;;;;;;;;;10244426;29;20405;-88
2021/08/28 04:03:35;;;;;;;2.97;1.17;;;;;;;;;;10245580;29;20039;-87
2021/08/28 04:08:35;;;;;;;1.73;1.10;;;;;;;;;;10231590;29;20427;-89
2021/08/28 04:13:35;;;;;;;1.00;0.90;;;;;;;;;;10230428;29;20470;-86
2021/08/28 04:18:36;;;;;;;1.27;1.10;;;;;;;;;;10231053;29;20062;-86
2021/08/28 04:23:36;;;;;;;1.70;1.13;;;;;;;;;;10229792;29;20063;-87
2021/08/28 04:28:37;;;;;;;2.33;0.93;;;;;;;;;;10228314;29;20115;-87
2021/08/28 04:33:37;;;;;;;1.47;1.30;;;;;;;;;;10232148;29;20079;-88
2021/08/28 04:38:37;;;;;;;2.07;1.70;;;;;;;;;;10244333;28;20510;-90
2021/08/28 04:43:38;;;;;;;2.70;1.73;;;;;;;;;;10175253;29;20055;-88
2021/08/28 04:48:38;;;;;;;4.07;3.87;;;;;;;;;;10188540;29;20463;-92
2021/08/28 04:53:39;;;;;;;4.32;3.92;;;;;;;;;;10204043;29;20467;-89
2021/08/28 04:58:39;;;;;;;3.90;3.60;;;;;;;;;;10189291;29;20052;-85
2021/08/28 05:03:39;;;;;;;3.93;3.63;;;;;;;;;;10187835;29;20499;-82
2021/08/28 05:08:40;;;;;;;4.77;3.50;;;;;;;;;;10188911;29;20458;-86
2021/08/28 05:13:40;;;;;;;3.83;3.57;;;;;;;;;;10188664;29;20044;-87
2021/08/28 05:18:40;;;;;;;4.87;3.50;;;;;;;;;;10187482;29;20056;-87
2021/08/28 05:23:41;;;;;;;3.53;3.27;;;;;;;;;;10186668;29;20130;-86
2021/08/28 05:28:41;;;;;;;7.03;3.70;;;;;;;;;;10176603;29;20984;-87
2021/08/28 05:33:42;;;;;;;4.63;4.05;;;;;;;;;;10203259;29;20064;-90
2021/08/28 05:38:42;;;;;;;4.25;3.88;;;;;;;;;;10155780;29;20102;-88
2021/08/28 05:43:43;;;;;;;4.20;3.80;;;;;;;;;;10229832;29;20213;-88
2021/08/28 05:48:43;;;;;;;4.30;3.90;;;;;;;;;;10264412;28;20086;-87
2021/08/28 05:53:43;;;;;;;3.85;3.55;;;;;;;;;;10242060;29;20032;-83
2021/08/28 05:58:44;;;;;;;4.57;4.17;;;;;;;;;;10248791;29;20051;-83
2021/08/28 06:03:44;;;;;;;4.10;3.80;;;;;;;;;;10240434;29;20091;-85
2021/08/28 06:08:44;;;;;;;6.13;3.87;;;;;;;;;;10234315;29;20036;-86
2021/08/28 06:13:45;;;;;;;5.33;4.10;;;;;;;;;;10226395;29;20119;-85
2021/08/28 06:18:45;;;;;;;4.17;3.87;;;;;;;;;;10225838;29;20667;-83
2021/08/28 06:23:46;;;;;;;1.77;1.50;;;;;;;;;;10227768;29;20042;-84
2021/08/28 06:28:47;;;;;;;2.47;1.98;;;;;;;;;;10248447;29;20039;-84
2021/08/28 06:33:47;;;;;;;3.65;1.55;;;;;;;;;;10248026;29;20080;-84
2021/08/28 06:38:48;;;;;;;4.40;2.13;;;;;;;;;;10263511;29;20122;-85
2021/08/28 06:43:48;;;;;;;5.27;1.40;;;;;;;;;;10249431;29;20059;-84
2021/08/28 06:48:49;;;;;;;1.67;1.58;;;;;;;;;;10222614;29;20462;-87
2021/08/28 06:53:49;;;;;;;3.22;1.90;;;;;;;;;;10229692;29;20040;-84
2021/08/28 06:58:50;;;;;;;2.90;1.77;;;;;;;;;;10223303;29;20063;-82
2021/08/28 07:03:50;;;;;;;3.75;2.17;;;;;;;;;;10231046;29;20043;-85
2021/08/28 07:08:51;;;;;;;3.77;1.80;;;;;;;;;;10233287;29;20092;-84
2021/08/28 07:13:51;;;;;;;4.90;1.93;;;;;;;;;;10235355;29;20035;-85
2021/08/28 07:18:52;;;;;;;5.90;1.97;;;;;;;;;;10241826;29;20034;-83
2021/08/28 07:23:52;;;;;;;4.38;2.00;;;;;;;;;;10269350;29;20043;-86
2021/08/28 07:28:52;;;;;;;3.90;1.80;;;;;;;;;;10257958;29;20039;-92
2021/08/28 07:33:53;;;;;;;3.17;1.65;;;;;;;;;;10242419;29;20466;-85
2021/08/28 07:38:53;;;;;;;2.37;1.90;;;;;;;;;;10241725;29;20070;-84
2021/08/28 07:43:54;;;;;;;4.75;1.85;;;;;;;;;;10272855;23;20067;-86
2021/08/28 07:48:54;;;;;;;3.70;1.83;;;;;;;;;;10235102;29;20058;-85
2021/08/28 07:53:54;;;;;;;1.87;1.70;;;;;;;;;;10202074;29;20469;-85
2021/08/28 07:58:55;;;;;;;2.53;1.97;;;;;;;;;;10218722;29;20134;-85
2021/08/28 08:03:55;;;;;;;3.30;2.13;;;;;;;;;;10233443;29;20481;-86
2021/08/28 08:08:55;;;;;;;4.33;1.87;;;;;;;;;;10217922;29;20072;-86
2021/08/28 08:13:57;;;;;;;4.53;1.87;;;;;;;;;;10218433;29;20075;-91
2021/08/28 08:18:57;;;;;;;4.80;2.30;;;;;;;;;;10185770;29;20466;-86
2021/08/28 08:23:58;;;;;;;4.60;2.20;;;;;;;;;;10218490;29;20397;-87
2021/08/28 08:28:59;;;;;;;3.20;1.80;;;;;;;;;;10231716;29;20047;-86
2021/08/28 08:33:59;;;;;;;8.18;2.05;;;;;;;;;;10225050;29;20434;-90
2021/08/28 08:38:59;;;;;;;3.13;1.67;;;;;;;;;;10223435;29;20044;-88
2021/08/28 08:44:00;;;;;;;3.90;1.80;;;;;;;;;;10218135;29;21010;-93
2021/08/28 08:49:01;;;;;;;3.38;1.95;;;;;;;;;;10223959;29;20051;-95
2021/08/28 08:54:03;;;;;;;4.20;1.80;;;;;;;;;;10225094;29;20035;-93
2021/08/28 08:59:04;;;;;;;2.17;1.80;;;;;;;;;;10220030;29;20063;-92
2021/08/28 09:04:04;;;;;;;5.03;1.70;;;;;;;;;;10221401;29;20469;-93
2021/08/28 09:09:05;;;;;;;6.97;1.63;;;;;;;;;;10192897;29;20131;-85
2021/08/28 09:14:22;;;;;;;3.75;1.45;;;;;;;;;;10220473;29;20039;-85
2021/08/28 09:19:37;;;;;;;3.28;1.42;;;;;;;;;;10214579;29;20124;-85
2021/08/28 09:24:44;;;;;;;2.28;1.23;;;;;;;;;;10197485;29;20042;-84
2021/08/28 09:29:45;;;;;;;1.27;1.15;;;;;;;;;;10224345;29;20067;-85
2021/08/28 09:34:45;;;;;;;2.73;1.60;;;;;;;;;;10219778;29;20071;-84
2021/08/28 09:39:48;;;;;;;1.97;1.40;;;;;;;;;;10215546;29;20038;-85
2021/08/28 09:44:50;;;;;;;2.15;1.40;;;;;;;;;;10207663;29;20051;-88
2021/08/28 09:49:51;;;;;;;2.55;1.30;;;;;;;;;;10175111;29;20407;-83
2021/08/28 09:54:56;;;;;;;6.65;1.65;;;;;;;;;;10162776;29;20032;-84
2021/08/28 10:00:00;;;;;;;2.35;1.30;;;;;;;;;;10205272;29;20401;-84
2021/08/28 10:05:01;;;;;;;2.90;1.30;;;;;;;;;;10204288;29;20055;-85
2021/08/28 10:10:05;;;;;;;4.28;1.30;;;;;;;;;;10174761;29;20561;-85
2021/08/28 10:15:07;;;;;;;1.40;1.30;;;;;;;;;;10215869;29;20043;-85
2021/08/28 10:20:09;;;;;;;1.58;1.13;;;;;;;;;;10206494;29;20040;-85
2021/08/28 10:25:12;;;;;;;6.00;1.65;;;;;;;;;;10189102;29;20105;-84
2021/08/28 10:30:13;;;;;;;7.43;1.23;;;;;;;;;;10205395;29;20481;-85
2021/08/28 10:35:15;;;;;;;2.65;1.40;;;;;;;;;;10172706;29;20123;-85
2021/08/28 10:40:30;;;;;;;3.42;1.15;;;;;;;;;;10186872;29;20107;-85
2021/08/28 10:45:36;;;;;;;5.05;1.13;;;;;;;;;;10244321;28;20062;-84
2021/08/28 10:50:41;;;;;;;2.20;1.25;;;;;;;;;;10253001;29;20095;-85
2021/08/28 10:55:45;;;;;;;1.23;1.05;;;;;;;;;;10249689;28;20054;-85
2021/08/28 11:00:53;;;;;;;1.48;1.00;;;;;;;;;;10239855;29;20110;-85
2021/08/28 11:06:16;;;;;;;1.85;1.20;;;;;;;;;;10208471;29;20046;-84
2021/08/28 11:11:40;;;;;;;3.17;1.10;;;;;;;;;;10183729;29;20040;-85
2021/08/28 11:16:40;;;;;;;0.70;0.70;;;;;;;;;;10220242;29;20175;-84
2021/08/28 11:21:41;;;;;;;6.45;1.08;;;;;;;;;;10238038;29;20046;-84
2021/08/28 11:26:42;;;;;;;3.40;1.00;;;;;;;;;;10229298;29;20545;-84
2021/08/28 11:31:46;;;;;;;3.57;1.53;;;;;;;;;;10219172;29;20042;-84
2021/08/28 11:36:47;;;;;;;1.95;1.10;;;;;;;;;;10222842;29;20544;-85
2021/08/28 11:41:48;;;;;;;1.95;0.88;;;;;;;;;;10238546;29;20561;-85
2021/08/28 11:46:50;;;;;;;3.53;1.20;;;;;;;;;;10235576;28;20036;-84
2021/08/28 11:51:51;;;;;;;2.72;1.10;;;;;;;;;;10218677;29;20143;-87
2021/08/28 11:56:56;;;;;;;1.65;1.10;;;;;;;;;;10216946;29;20047;-86
2021/08/28 12:01:57;;;;;;;2.28;1.08;;;;;;;;;;10202621;29;20044;-88
2021/08/28 12:06:58;;;;;;;1.33;0.90;;;;;;;;;;10252743;28;20058;-88
2021/08/28 12:11:59;;;;;;;1.83;1.10;;;;;;;;;;10188851;29;20138;-90
2021/08/28 12:17:00;;;;;;;1.00;1.00;;;;;;;;;;10203873;29;20077;-91
2021/08/28 12:22:05;;;;;;;3.47;1.10;;;;;;;;;;10200920;29;20044;-86
2021/08/28 12:27:11;;;;;;;1.20;1.05;;;;;;;;;;10207573;29;20039;-84
2021/08/28 12:32:22;;;;;;;0.68;0.68;;;;;;;;;;10249612;28;20130;-85
2021/08/28 12:37:27;;;;;;;2.08;0.93;;;;;;;;;;10232329;28;20040;-89
2021/08/28 12:42:31;;;;;;;3.03;0.90;;;;;;;;;;10187394;29;20047;-88
2021/08/28 12:47:36;;;;;;;1.50;1.00;;;;;;;;;;10220073;29;20051;-88
2021/08/28 12:52:44;;;;;;;1.25;1.15;;;;;;;;;;10223402;29;20050;-89
2021/08/28 12:57:52;;;;;;;1.75;0.93;;;;;;;;;;10204522;29;20042;-90
2021/08/28 13:02:53;;;;;;;1.83;1.10;;;;;;;;;;10220186;29;20035;-88
2021/08/28 13:07:54;;;;;;;1.30;1.00;;;;;;;;;;10234101;29;20035;-89
2021/08/28 13:12:57;;;;;;;0.88;0.85;;;;;;;;;;10218471;29;21031;-84
2021/08/28 13:18:03;;;;;;;1.63;0.95;;;;;;;;;;10214249;29;20028;-84
2021/08/28 13:23:05;;;;;;;0.88;0.88;;;;;;;;;;10212050;29;20035;-81
2021/08/28 13:28:17;;;;;;;1.20;1.00;;;;;;;;;;10214540;29;20079;-81
2021/08/28 13:33:26;;;;;;;1.42;1.13;;;;;;;;;;10232939;29;20039;-82
2021/08/28 13:38:27;;;;;;;0.93;0.80;;;;;;;;;;10217374;29;20040;-84
2021/08/28 13:43:28;;;;;;;1.00;0.90;;;;;;;;;;10223216;29;20399;-89
2021/08/28 13:48:29;;;;;;;0.90;0.90;;;;;;;;;;10182046;29;20043;-88
2021/08/28 13:53:29;;;;;;;1.48;1.10;;;;;;;;;;10182182;29;20052;-91
2021/08/28 13:58:29;;;;;;;1.83;0.90;;;;;;;;;;10179050;29;20076;-89
2021/08/28 14:03:31;;;;;;;1.70;0.90;;;;;;;;;;10175536;29;20047;-90
2021/08/28 14:08:32;;;;;;;1.05;0.85;;;;;;;;;;10184929;29;20044;-88
2021/08/28 14:13:32;;;;;;;1.27;0.90;;;;;;;;;;10181702;29;20032;-90
2021/08/28 14:18:34;;;;;;;1.17;0.93;;;;;;;;;;10176806;29;20067;-92
2021/08/28 14:23:35;;;;;;;1.00;0.90;;;;;;;;;;10208699;29;20494;-89
2021/08/28 14:28:36;;;;;;;1.38;1.00;;;;;;;;;;10160472;29;20036;-89
2021/08/28 14:33:36;;;;;;;0.93;0.90;;;;;;;;;;10175486;29;20118;-90
2021/08/28 14:38:37;;;;;;;2.38;0.85;;;;;;;;;;10207806;29;20071;-89
2021/08/28 14:43:38;;;;;;;1.05;0.95;;;;;;;;;;10191430;29;20056;-91
2021/08/28 14:48:38;;;;;;;4.10;1.10;;;;;;;;;;10175515;29;20043;-90
2021/08/28 14:53:39;;;;;;;0.75;0.70;;;;;;;;;;10190944;29;20041;-88
2021/08/28 14:58:40;;;;;;;1.15;1.10;;;;;;;;;;10175135;29;20040;-91
2021/08/28 15:03:40;;;;;;;1.00;0.98;;;;;;;;;;10156846;29;20135;-91
2021/08/28 15:08:40;;;;;;;1.27;0.73;;;;;;;;;;10207434;29;20383;-95
2021/08/28 15:13:41;;;;;;;1.60;1.10;;;;;;;;;;10191554;29;20036;-91
2021/08/28 15:18:42;;;;;;;1.73;0.97;;;;;;;;;;10158835;29;20040;-90
2021/08/28 15:23:43;;;;;;;0.75;0.75;;;;;;;;;;10180743;29;20040;-93
2021/08/28 15:28:44;;;;;;;1.83;0.90;;;;;;;;;;10156811;29;20494;-93
2021/08/28 15:33:45;;;;;;;1.95;0.85;;;;;;;;;;10169190;29;20040;-88
2021/08/28 15:38:45;;;;;;;1.63;0.80;;;;;;;;;;10182011;29;20055;-92
2021/08/28 15:43:47;;;;;;;1.83;0.90;;;;;;;;;;10181728;29;20487;-88
2021/08/28 15:48:47;;;;;;;1.00;0.90;;;;;;;;;;10196534;29;20554;-91
2021/08/28 15:53:47;;;;;;;0.90;0.90;;;;;;;;;;10181031;29;20135;-91
2021/08/28 15:58:48;;;;;;;2.23;0.97;;;;;;;;;;10181399;29;20039;-89
2021/08/28 16:03:48;;;;;;;0.75;0.70;;;;;;;;;;10195911;29;20036;-88
2021/08/28 16:08:49;;;;;;;0.83;0.80;;;;;;;;;;10195847;29;20438;-89
2021/08/28 16:13:49;;;;;;;3.50;1.20;;;;;;;;;;10193800;29;20050;-87
2021/08/28 16:18:50;;;;;;;2.23;1.03;;;;;;;;;;10180810;29;20035;-90
2021/08/28 16:23:50;;;;;;;8.07;1.00;;;;;;;;;;10179352;29;20032;-88
2021/08/28 16:28:51;;;;;;;1.03;1.00;;;;;;;;;;10211844;29;20052;-89
2021/08/28 16:33:51;;;;;;;1.50;0.90;;;;;;;;;;10152941;29;20438;-88
2021/08/28 16:38:52;;;;;;;0.57;0.57;;;;;;;;;;10179383;29;20133;-88
2021/08/28 16:43:52;;;;;;;0.90;0.90;;;;;;;;;;10193832;29;20530;-90
2021/08/28 16:48:55;;;;;;;2.35;0.88;;;;;;;;;;10194940;29;20095;-90
2021/08/28 16:53:56;;;;;;;1.00;0.80;;;;;;;;;;10151557;29;20130;-93
2021/08/28 16:58:56;;;;;;;0.80;0.77;;;;;;;;;;10178930;29;20146;-88
2021/08/28 17:03:57;;;;;;;1.30;1.00;;;;;;;;;;10178639;29;20036;-90
2021/08/28 17:08:57;;;;;;;0.80;0.80;;;;;;;;;;10194765;29;20099;-87
2021/08/28 17:13:57;;;;;;;0.80;0.80;;;;;;;;;;10192429;29;20127;-87
2021/08/28 17:18:58;;;;;;;1.20;1.00;;;;;;;;;;10207937;29;20040;-88
2021/08/28 17:23:58;;;;;;;1.57;0.90;;;;;;;;;;10208349;29;20072;-87
2021/08/28 17:28:58;;;;;;;1.53;1.00;;;;;;;;;;10192179;29;20455;-86
2021/08/28 17:33:59;;;;;;;0.97;0.87;;;;;;;;;;10176530;29;20059;-86
2021/08/28 17:38:59;;;;;;;0.80;0.80;;;;;;;;;;10176233;29;20088;-84
2021/08/28 17:44:00;;;;;;;1.50;1.40;;;;;;;;;;10231813;28;20054;-83
2021/08/28 17:49:02;;;;;;;3.50;1.25;;;;;;;;;;10215781;29;20051;-82
2021/08/28 17:54:02;;;;;;;3.50;1.17;;;;;;;;;;10225858;29;20434;-80
2021/08/28 17:59:02;;;;;;;1.97;1.27;;;;;;;;;;10226065;29;20058;-81
2021/08/28 18:04:03;;;;;;;1.47;1.17;;;;;;;;;;10237822;29;20039;-80
2021/08/28 18:09:03;;;;;;;1.52;0.80;;;;;;;;;;10251124;29;20523;-85
2021/08/28 18:14:04;;;;;;;2.53;1.23;;;;;;;;;;10251614;29;20043;-84
2021/08/28 18:19:04;;;;;;;2.33;1.33;;;;;;;;;;10248220;29;20086;-83
2021/08/28 18:24:05;;;;;;;1.83;0.95;;;;;;;;;;10258323;28;20031;-84
2021/08/28 18:29:06;;;;;;;3.92;1.20;;;;;;;;;;10208566;29;20113;-85
2021/08/28 18:34:09;;;;;;;1.20;1.00;;;;;;;;;;10246504;29;20048;-83
2021/08/28 18:39:09;;;;;;;1.65;1.30;;;;;;;;;;10238125;29;20040;-82
2021/08/28 18:44:10;;;;;;;7.13;1.35;;;;;;;;;;10240195;28;20051;-82
2021/08/28 18:49:10;;;;;;;4.50;1.40;;;;;;;;;;10230470;28;20053;-83
2021/08/28 18:54:10;;;;;;;6.37;1.67;;;;;;;;;;10220798;29;20038;-82
2021/08/28 18:59:11;;;;;;;3.40;1.73;;;;;;;;;;10227537;29;20122;-82
2021/08/28 19:04:12;;;;;;;2.87;1.30;;;;;;;;;;10224723;29;20529;-84
2021/08/28 19:09:13;;;;;;;1.55;1.30;;;;;;;;;;10253069;28;20062;-83
2021/08/28 19:14:14;;;;;;;1.23;1.13;;;;;;;;;;10267489;28;20090;-84
2021/08/28 19:19:14;;;;;;;4.57;1.60;;;;;;;;;;10262385;28;20177;-85
2021/08/28 19:24:15;;;;;;;2.07;1.50;;;;;;;;;;10279247;28;20087;-83
2021/08/28 19:29:15;;;;;;;4.80;1.83;;;;;;;;;;10278280;28;20413;-85
2021/08/28 19:34:17;;;;;;;2.95;1.40;;;;;;;;;;10263425;28;20039;-85
2021/08/28 19:39:17;;;;;;;3.20;1.30;;;;;;;;;;10270948;28;20087;-85
2021/08/28 19:44:18;;;;;;;2.80;1.25;;;;;;;;;;10274052;23;20142;-83
2021/08/28 19:49:19;;;;;;;5.18;1.50;;;;;;;;;;10268152;28;20059;-82
2021/08/28 19:54:20;;;;;;;3.33;1.45;;;;;;;;;;10238283;29;20058;-87
2021/08/28 19:59:20;;;;;;;3.13;1.30;;;;;;;;;;10244594;29;20043;-87
2021/08/28 20:04:21;;;;;;;3.27;1.27;;;;;;;;;;10240680;29;20086;-84
2021/08/28 20:09:21;;;;;;;2.42;1.15;;;;;;;;;;10231951;29;20099;-84
2021/08/28 20:14:22;;;;;;;2.30;1.43;;;;;;;;;;10244176;29;20031;-86
2021/08/28 20:19:22;;;;;;;2.13;1.30;;;;;;;;;;10229244;29;20473;-83
2021/08/28 20:24:22;;;;;;;3.40;1.40;;;;;;;;;;10236992;29;20039;-82
2021/08/28 20:29:23;;;;;;;1.70;1.13;;;;;;;;;;10229248;29;20458;-82
2021/08/28 20:34:23;;;;;;;1.70;1.03;;;;;;;;;;10228323;29;20462;-84
2021/08/28 20:39:23;;;;;;;1.70;1.10;;;;;;;;;;10236165;29;20072;-86
2021/08/28 20:44:24;;;;;;;3.70;1.03;;;;;;;;;;10233885;29;20363;-89
2021/08/28 20:49:26;;;;;;;6.43;1.40;;;;;;;;;;10263151;29;20434;-91
2021/08/28 20:54:27;;;;;;;7.65;1.52;;;;;;;;;;10259126;29;20042;-89
2021/08/28 20:59:27;;;;;;;5.30;1.88;;;;;;;;;;10248491;29;20057;-89
2021/08/28 21:04:28;;;;;;;3.23;1.20;;;;;;;;;;10244885;29;20063;-89
2021/08/28 21:09:28;;;;;;;2.00;1.20;;;;;;;;;;10249836;29;20094;-90
2021/08/28 21:14:29;;;;;;;2.00;1.10;;;;;;;;;;10264874;29;20500;-90
2021/08/28 21:19:29;;;;;;;4.68;1.08;;;;;;;;;;10248822;29;20066;-88
2021/08/28 21:24:30;;;;;;;2.95;1.10;;;;;;;;;;10252889;29;20043;-87
2021/08/28 21:29:30;;;;;;;2.23;1.10;;;;;;;;;;10256351;29;20103;-86
2021/08/28 21:34:30;;;;;;;7.43;1.10;;;;;;;;;;10241553;29;20097;-83
2021/08/28 21:39:31;;;;;;;5.05;1.23;;;;;;;;;;10270691;29;20552;-83
2021/08/28 21:44:32;;;;;;;8.37;1.37;;;;;;;;;;10256339;29;20409;-83
2021/08/28 21:49:32;;;;;;;5.72;1.20;;;;;;;;;;10270488;28;20393;-86
2021/08/28 21:54:33;;;;;;;6.47;0.90;;;;;;;;;;10252211;29;20035;-83
2021/08/28 21:59:34;;;;;;;4.82;1.20;;;;;;;;;;10267670;29;20039;-87
2021/08/28 22:04:34;;;;;;;2.27;0.97;;;;;;;;;;10267541;28;20035;-87
2021/08/28 22:09:35;;;;;;;2.33;0.80;;;;;;;;;;10267825;29;20075;-85
2021/08/28 22:14:35;;;;;;;2.45;1.17;;;;;;;;;;10265387;29;20474;-84
2021/08/28 22:19:35;;;;;;;6.17;0.97;;;;;;;;;;10227359;29;20171;-82
2021/08/28 22:24:36;;;;;;;5.00;1.00;;;;;;;;;;10229008;29;20489;-86
2021/08/28 22:29:36;;;;;;;5.30;1.17;;;;;;;;;;10209379;29;20051;-84
2021/08/28 22:34:36;;;;;;;2.13;1.20;;;;;;;;;;10226792;29;20040;-85
2021/08/28 22:39:37;;;;;;;3.30;1.23;;;;;;;;;;10212632;29;20111;-82
2021/08/28 22:44:38;;;;;;;1.77;0.90;;;;;;;;;;10226371;29;20059;-89
2021/08/28 22:49:38;;;;;;;3.97;0.90;;;;;;;;;;10240484;28;20040;-87
2021/08/28 22:54:39;;;;;;;4.43;1.13;;;;;;;;;;10225317;29;20036;-87
2021/08/28 22:59:40;;;;;;;7.22;1.10;;;;;;;;;;10225740;29;20044;-82
2021/08/28 23:04:40;;;;;;;1.48;1.00;;;;;;;;;;10224737;29;20028;-83
2021/08/28 23:09:41;;;;;;;1.77;1.00;;;;;;;;;;10226992;29;20043;-83
2021/08/28 23:14:41;;;;;;;2.53;0.90;;;;;;;;;;10241313;29;20459;-89
2021/08/28 23:19:41;;;;;;;4.33;1.00;;;;;;;;;;10225094;29;20072;-87
2021/08/28 23:24:42;;;;;;;1.87;1.03;;;;;;;;;;10225231;29;20075;-88
2021/08/28 23:29:42;;;;;;;2.67;1.33;;;;;;;;;;10225971;29;20117;-88
2021/08/28 23:34:43;;;;;;;1.50;1.03;;;;;;;;;;10241042;28;20036;-87
2021/08/28 23:39:43;;;;;;;2.00;1.20;;;;;;;;;;10238757;29;20449;-87
2021/08/28 23:44:43;;;;;;;1.60;1.00;;;;;;;;;;10217918;29;20789;-85
2021/08/28 23:49:46;;;;;;;2.13;1.00;;;;;;;;;;10247598;28;20035;-87
2021/08/28 23:54:46;;;;;;;2.17;1.20;;;;;;;;;;10232781;29;20038;-89
2021/08/28 23:59:47;;;;;;;2.60;1.50;;;;;;;;;;10232114;29;20040;-85
